< < Back
Terminal Aerodrome Forecast


Current Version              Previous Versions:   1  2  3  4  5  6  7  8  9  

Terminal Aerodrome Forecast

934
FTUS44 KBMX 251136
TAFANB
TAF
KANB 251136Z 2512/2612 06005KT P6SM BKN070
     FM251600 VRB04KT P6SM SCT250
     FM251900 07006KT P6SM SCT050=



Latest METAR

439
SAUS70 KWBC 252300 RRC
MTRANB
METAR KANB 252253Z AUTO 05004KT 10SM CLR 33/19 A3006 RMK AO2 SLP167
T03330194


USA.gov is the U.S. government's official web portal to all federal, state and local government web resources and services.